createdAt,value
2022-12-25T00:00:20.492Z,4.43
2022-12-25T00:05:22.776Z,4.88
2022-12-25T00:10:25.961Z,6.32
2022-12-25T00:15:27.824Z,5.53
2022-12-25T00:20:29.664Z,6.25
2022-12-25T00:25:31.274Z,7.93
2022-12-25T00:30:32.979Z,3.28
2022-12-25T00:35:34.575Z,5.65
2022-12-25T00:40:45.250Z,5.63
2022-12-25T00:46:01.692Z,7.82
2022-12-25T00:51:06.301Z,4.20
2022-12-25T00:56:08.250Z,6.70
2022-12-25T01:01:11.156Z,7.32
2022-12-25T01:06:13.197Z,7.70
2022-12-25T01:11:14.816Z,6.03
2022-12-25T01:16:16.560Z,6.80
2022-12-25T01:21:21.462Z,9.48
2022-12-25T01:26:25.255Z,11.30
2022-12-25T01:31:27.018Z,10.43
2022-12-25T01:36:28.727Z,6.57
2022-12-25T01:41:30.391Z,5.18
2022-12-25T01:46:32.497Z,6.78
2022-12-25T01:51:45.323Z,7.85
2022-12-25T01:56:48.344Z,9.77
2022-12-25T02:01:50.100Z,9.00
2022-12-25T02:06:52.305Z,7.05
2022-12-25T02:11:56.727Z,9.68
2022-12-25T02:17:18.428Z,9.30
2022-12-25T02:22:28.432Z,8.18
2022-12-25T02:27:52.645Z,9.02
2022-12-25T02:33:19.511Z,10.63
2022-12-25T02:38:25.398Z,8.07
2022-12-25T02:43:50.957Z,9.95
2022-12-25T02:49:13.655Z,11.85
2022-12-25T02:54:37.330Z,12.00
2022-12-25T02:59:59.566Z,7.97
2022-12-25T03:05:23.280Z,8.82
2022-12-25T03:10:43.529Z,7.30
2022-12-25T03:16:05.874Z,5.40
2022-12-25T03:21:26.633Z,14.70
2022-12-25T03:26:46.899Z,10.05
2022-12-25T03:31:56.338Z,6.80
2022-12-25T03:37:34.530Z,8.35
2022-12-25T03:48:16.066Z,9.52
2022-12-25T03:54:01.484Z,9.57
2022-12-25T03:59:24.179Z,6.50
2022-12-25T04:04:44.700Z,12.98
2022-12-25T04:10:04.867Z,8.57
2022-12-25T04:15:25.323Z,13.15
2022-12-25T04:20:45.627Z,10.27
2022-12-25T04:26:05.925Z,9.50
2022-12-25T04:31:25.873Z,8.43
2022-12-25T04:36:27.522Z,11.23
2022-12-25T04:41:29.151Z,7.30
2022-12-25T04:46:30.843Z,11.90
2022-12-25T04:51:32.512Z,8.88
2022-12-25T04:56:35.645Z,11.70
2022-12-25T05:01:40.430Z,10.20
2022-12-25T05:06:42.800Z,13.20
2022-12-25T05:11:44.455Z,10.48
2022-12-25T05:16:46.087Z,9.40
2022-12-25T05:21:47.756Z,9.68
2022-12-25T05:26:49.360Z,9.95
2022-12-25T05:31:51.126Z,9.73
2022-12-25T05:36:52.859Z,12.55
2022-12-25T05:41:54.474Z,7.63
2022-12-25T05:46:56.250Z,6.43
2022-12-25T05:51:58.008Z,8.20
2022-12-25T05:56:59.654Z,6.88
2022-12-25T06:02:01.420Z,9.40
2022-12-25T06:07:03.127Z,7.78
2022-12-25T06:12:04.858Z,9.40
2022-12-25T06:17:06.665Z,10.68
2022-12-25T06:22:08.373Z,9.80
2022-12-25T06:27:10.149Z,10.50
2022-12-25T06:32:12.396Z,9.70
2022-12-25T06:37:14.094Z,10.40
2022-12-25T06:42:15.777Z,10.52
2022-12-25T06:47:17.951Z,8.02
2022-12-25T06:52:19.543Z,12.90
2022-12-25T06:57:21.157Z,11.63
2022-12-25T07:02:24.040Z,8.85
2022-12-25T07:07:25.828Z,15.40
2022-12-25T07:12:27.631Z,16.73
2022-12-25T07:17:29.268Z,13.02
2022-12-25T07:22:30.918Z,13.18
2022-12-25T07:27:32.587Z,9.98
2022-12-25T07:32:34.309Z,10.48
2022-12-25T07:37:35.967Z,11.18
2022-12-25T07:42:37.654Z,11.13
2022-12-25T07:47:39.781Z,9.85
2022-12-25T07:52:43.696Z,11.10
2022-12-25T07:57:45.585Z,10.13
2022-12-25T08:02:50.395Z,9.68
2022-12-25T08:07:57.661Z,9.63
2022-12-25T08:12:59.790Z,10.77
2022-12-25T08:18:01.394Z,13.75
2022-12-25T08:23:03.606Z,10.05
2022-12-25T08:28:05.267Z,13.73
2022-12-25T08:33:07.665Z,10.65
2022-12-25T08:38:09.388Z,17.23
2022-12-25T08:43:11.120Z,8.60
2022-12-25T08:48:12.994Z,14.27
2022-12-25T08:53:15.729Z,13.20
2022-12-25T08:58:17.733Z,13.68
2022-12-25T09:03:19.608Z,15.25
2022-12-25T09:08:24.322Z,10.45
2022-12-25T09:13:26.016Z,12.63
2022-12-25T09:18:27.683Z,14.02
2022-12-25T09:23:29.585Z,13.82
2022-12-25T09:28:31.254Z,13.15
2022-12-25T09:33:33.129Z,11.85
2022-12-25T09:38:35.564Z,10.38
2022-12-25T09:43:40.065Z,14.82
2022-12-25T09:48:47.519Z,15.65
2022-12-25T09:53:55.255Z,14.27
2022-12-25T09:58:57.158Z,14.13
2022-12-25T10:04:15.352Z,13.43
2022-12-25T10:09:23.008Z,14.57
2022-12-25T10:14:48.329Z,12.30
2022-12-25T10:20:09.771Z,12.27
2022-12-25T10:25:17.239Z,14.38
2022-12-25T10:30:24.168Z,16.83
2022-12-25T10:40:34.959Z,13.75
2022-12-25T10:45:44.611Z,10.90
2022-12-25T10:50:46.324Z,11.85
2022-12-25T10:56:05.410Z,15.35
2022-12-25T11:06:25.780Z,13.60
2022-12-25T11:11:28.132Z,15.50
2022-12-25T11:16:32.982Z,10.05
2022-12-25T11:21:38.112Z,12.00
2022-12-25T11:26:51.288Z,12.13
2022-12-25T11:31:54.865Z,10.50
2022-12-25T11:36:58.240Z,11.25
2022-12-25T11:42:05.984Z,11.05
2022-12-25T11:47:45.739Z,7.65
2022-12-25T11:52:47.870Z,11.00
2022-12-25T11:57:54.391Z,10.55
2022-12-25T12:03:00.559Z,10.77
2022-12-25T12:13:24.368Z,9.48
2022-12-25T12:18:26.018Z,10.65
2022-12-25T12:23:28.925Z,12.60
2022-12-25T12:28:42.483Z,8.27
2022-12-25T12:33:50.828Z,9.65
2022-12-25T12:38:53.427Z,8.88
2022-12-25T12:44:00.355Z,11.52
2022-12-25T12:49:16.917Z,10.93
2022-12-25T12:54:22.732Z,11.63
2022-12-25T12:59:25.486Z,13.35
2022-12-25T13:04:52.404Z,13.60
2022-12-25T13:10:13.526Z,11.07
2022-12-25T13:15:15.266Z,11.32
2022-12-25T13:20:55.239Z,11.55
2022-12-25T13:25:59.299Z,9.32
2022-12-25T13:31:21.955Z,7.95
2022-12-25T13:36:24.854Z,7.53
2022-12-25T13:41:49.372Z,7.63
2022-12-25T13:46:51.059Z,8.52
2022-12-25T13:51:52.811Z,11.50
2022-12-25T13:56:55.128Z,11.80
2022-12-25T14:01:57.891Z,12.55
2022-12-25T14:07:09.721Z,11.90
2022-12-25T14:12:15.833Z,9.07
2022-12-25T14:17:21.859Z,10.77
2022-12-25T14:22:24.119Z,8.98
2022-12-25T14:27:30.535Z,10.68
2022-12-25T14:32:39.637Z,9.82
2022-12-25T14:37:42.155Z,12.68
2022-12-25T14:42:55.096Z,10.52
2022-12-25T14:47:59.729Z,11.00
2022-12-25T14:53:01.500Z,12.35
2022-12-25T14:58:05.880Z,10.32
2022-12-25T15:03:18.670Z,9.73
2022-12-25T15:08:22.826Z,10.13
2022-12-25T15:13:25.490Z,9.48
2022-12-25T15:18:31.758Z,10.88
2022-12-25T15:23:33.448Z,11.95
2022-12-25T15:28:35.063Z,10.85
2022-12-25T15:33:42.229Z,12.85
2022-12-25T15:38:45.800Z,8.75
2022-12-25T15:43:47.949Z,12.88
2022-12-25T15:48:49.604Z,13.60
2022-12-25T15:53:51.554Z,12.05
2022-12-25T15:58:53.193Z,13.70
2022-12-25T16:03:54.871Z,12.02
2022-12-25T16:08:56.605Z,12.68
2022-12-25T16:13:58.252Z,11.60
2022-12-25T16:18:59.878Z,10.10
2022-12-25T16:24:01.538Z,12.85
2022-12-25T16:29:07.263Z,13.90
2022-12-25T16:34:09.610Z,15.40
2022-12-25T16:39:12.313Z,14.00
2022-12-25T16:44:15.090Z,14.45
2022-12-25T16:49:16.720Z,14.20
2022-12-25T16:54:18.364Z,13.85
2022-12-25T16:59:20.055Z,12.00
2022-12-25T17:04:21.685Z,17.50
2022-12-25T17:09:23.421Z,16.38
2022-12-25T17:14:25.333Z,17.25
2022-12-25T17:19:26.995Z,15.77
2022-12-25T17:24:29.021Z,17.10
2022-12-25T17:29:31.973Z,17.33
2022-12-25T17:34:33.785Z,12.93
2022-12-25T17:39:35.534Z,16.88
2022-12-25T17:44:37.493Z,14.07
2022-12-25T17:49:39.174Z,14.80
2022-12-25T17:54:40.868Z,14.00
2022-12-25T17:59:42.482Z,13.25
2022-12-25T18:04:44.151Z,12.07
2022-12-25T18:09:45.793Z,13.45
2022-12-25T18:14:47.413Z,15.80
2022-12-25T18:19:50.915Z,16.13
2022-12-25T18:24:52.659Z,13.45
2022-12-25T18:29:54.326Z,14.88
2022-12-25T18:34:56.055Z,15.43
2022-12-25T18:39:57.665Z,13.55
2022-12-25T18:44:59.354Z,13.82
2022-12-25T18:50:01.225Z,17.00
2022-12-25T18:55:03.076Z,14.93
2022-12-25T19:00:05.116Z,13.90
2022-12-25T19:05:07.037Z,14.35
2022-12-25T19:10:10.316Z,14.52
2022-12-25T19:15:11.975Z,15.50
2022-12-25T19:20:13.675Z,12.60
2022-12-25T19:25:15.346Z,12.07
2022-12-25T19:30:18.251Z,11.35
2022-12-25T19:35:19.907Z,11.57
2022-12-25T19:40:22.620Z,11.05
2022-12-25T19:45:24.369Z,11.32
2022-12-25T19:50:28.545Z,10.65
2022-12-25T19:55:32.094Z,8.98
2022-12-25T20:00:33.787Z,10.13
2022-12-25T20:05:35.455Z,10.63
2022-12-25T20:10:42.899Z,11.02
2022-12-25T20:15:44.798Z,10.57
2022-12-25T20:20:46.480Z,10.18
2022-12-25T20:25:48.118Z,10.45
2022-12-25T20:30:49.732Z,11.60
2022-12-25T20:35:51.634Z,8.80
2022-12-25T20:41:29.023Z,9.88
2022-12-25T20:46:31.637Z,8.25
2022-12-25T20:51:34.531Z,10.57
2022-12-25T20:56:36.703Z,10.00
2022-12-25T21:01:38.593Z,9.82
2022-12-25T21:06:40.315Z,10.65
2022-12-25T21:11:41.973Z,10.93
2022-12-25T21:16:44.801Z,11.10
2022-12-25T21:21:49.873Z,8.88
2022-12-25T21:26:51.717Z,10.05
2022-12-25T21:32:12.925Z,11.15
2022-12-25T21:37:14.551Z,8.82
2022-12-25T21:42:16.878Z,6.57
2022-12-25T21:47:18.706Z,9.23
2022-12-25T21:52:20.367Z,9.73
2022-12-25T21:57:22.005Z,8.60
2022-12-25T22:02:23.777Z,8.70
2022-12-25T22:07:25.484Z,8.75
2022-12-25T22:12:45.521Z,8.25
2022-12-25T22:18:05.776Z,8.23
2022-12-25T22:23:08.787Z,9.57
2022-12-25T22:28:10.381Z,9.48
2022-12-25T22:33:12.870Z,10.40
2022-12-25T22:38:14.488Z,8.82
2022-12-25T22:43:16.136Z,11.50
2022-12-25T22:48:18.022Z,13.02
2022-12-25T22:53:20.134Z,8.63
2022-12-25T22:58:21.922Z,10.52
2022-12-25T23:03:23.690Z,8.30
2022-12-25T23:08:25.639Z,9.25
2022-12-25T23:13:45.821Z,9.10
2022-12-25T23:19:05.900Z,8.95
2022-12-25T23:24:28.142Z,9.32
2022-12-25T23:29:39.308Z,10.60
2022-12-25T23:34:43.306Z,9.95
2022-12-25T23:39:45.006Z,10.40
2022-12-25T23:44:46.692Z,9.27
2022-12-25T23:49:48.705Z,11.43
2022-12-25T23:54:50.353Z,8.00
2022-12-25T23:59:52.144Z,12.20
